createdAt,value
2022-10-22T00:01:05.277Z,13.58
2022-10-22T00:04:08.222Z,13.58
2022-10-22T00:07:11.368Z,13.47
2022-10-22T00:10:14.410Z,13.32
2022-10-22T00:13:17.207Z,13.16
2022-10-22T00:16:19.914Z,13.05
2022-10-22T00:19:22.656Z,12.88
2022-10-22T00:22:25.344Z,12.90
2022-10-22T00:25:28.237Z,12.83
2022-10-22T00:28:30.994Z,12.93
2022-10-22T00:31:34.026Z,12.95
2022-10-22T00:34:36.810Z,13.07
2022-10-22T00:37:39.517Z,13.06
2022-10-22T00:40:42.271Z,13.00
2022-10-22T00:44:33.115Z,13.02
2022-10-22T00:47:39.707Z,13.06
2022-10-22T00:50:48.238Z,13.03
2022-10-22T00:53:56.146Z,12.99
2022-10-22T00:56:59.076Z,13.07
2022-10-22T01:00:02.328Z,13.10
2022-10-22T01:03:06.836Z,13.29
2022-10-22T01:06:15.046Z,13.07
2022-10-22T01:09:29.894Z,13.09
2022-10-22T01:12:32.565Z,13.08
2022-10-22T01:16:00.401Z,13.11
2022-10-22T01:19:44.991Z,13.07
2022-10-22T01:23:08.991Z,13.01
2022-10-22T01:26:12.085Z,12.89
2022-10-22T01:29:24.229Z,12.84
2022-10-22T01:32:30.183Z,12.81
2022-10-22T01:35:37.761Z,12.93
2022-10-22T01:38:42.855Z,13.03
2022-10-22T01:41:45.771Z,12.92
2022-10-22T01:44:50.371Z,12.83
2022-10-22T01:48:06.660Z,12.83
2022-10-22T01:51:57.107Z,12.93
2022-10-22T01:55:03.691Z,13.03
2022-10-22T01:58:09.516Z,13.00
2022-10-22T02:01:12.258Z,12.99
2022-10-22T02:04:18.307Z,12.95
2022-10-22T02:07:24.818Z,13.00
2022-10-22T02:10:30.362Z,13.09
2022-10-22T02:13:47.358Z,13.11
2022-10-22T02:16:50.916Z,13.26
2022-10-22T02:20:01.517Z,13.28
2022-10-22T02:23:05.247Z,13.39
2022-10-22T02:26:25.010Z,13.39
2022-10-22T02:29:39.305Z,13.45
2022-10-22T02:32:55.630Z,13.50
2022-10-22T02:36:00.910Z,13.50
2022-10-22T02:39:04.577Z,13.60
2022-10-22T02:42:09.263Z,13.73
2022-10-22T02:45:12.080Z,13.81
2022-10-22T02:48:15.034Z,13.85
2022-10-22T02:51:17.888Z,13.93
2022-10-22T02:54:21.211Z,14.09
2022-10-22T02:57:23.908Z,14.21
2022-10-22T03:00:26.702Z,14.27
2022-10-22T03:03:29.541Z,14.35
2022-10-22T03:06:32.568Z,14.41
2022-10-22T03:09:35.612Z,14.48
2022-10-22T03:12:38.420Z,14.46
2022-10-22T03:15:41.120Z,14.49
2022-10-22T03:18:44.042Z,14.61
2022-10-22T03:21:50.812Z,14.64
2022-10-22T03:24:58.472Z,14.63
2022-10-22T03:28:07.534Z,14.65
2022-10-22T03:31:10.399Z,14.55
2022-10-22T03:34:13.608Z,14.52
2022-10-22T03:37:17.277Z,14.39
2022-10-22T03:40:20.981Z,14.39
2022-10-22T03:43:23.740Z,14.36
2022-10-22T03:46:26.571Z,14.25
2022-10-22T03:49:29.375Z,14.25
2022-10-22T03:52:37.782Z,14.20
2022-10-22T03:55:41.715Z,14.02
2022-10-22T03:58:44.409Z,13.94
2022-10-22T04:01:47.143Z,13.87
2022-10-22T04:04:49.964Z,13.80
2022-10-22T04:07:52.784Z,13.90
2022-10-22T04:10:55.630Z,14.06
2022-10-22T04:13:58.427Z,14.13
2022-10-22T04:17:01.519Z,14.19
2022-10-22T04:20:05.385Z,14.23
2022-10-22T04:23:08.151Z,14.27
2022-10-22T04:26:10.914Z,14.25
2022-10-22T04:29:16.141Z,14.20
2022-10-22T04:32:19.270Z,14.21
2022-10-22T04:35:22.369Z,14.14
2022-10-22T04:38:25.129Z,14.00
2022-10-22T04:41:33.681Z,13.89
2022-10-22T04:44:36.416Z,13.75
2022-10-22T04:47:39.516Z,13.79
2022-10-22T04:50:42.542Z,13.78
2022-10-22T04:53:46.730Z,13.63
2022-10-22T04:56:49.542Z,13.63
2022-10-22T04:59:52.663Z,13.54
2022-10-22T05:02:55.506Z,13.53
2022-10-22T05:06:01.730Z,13.45
2022-10-22T05:09:08.083Z,13.36
2022-10-22T05:12:10.928Z,13.32
2022-10-22T05:15:13.683Z,13.29
2022-10-22T05:18:19.056Z,13.24
2022-10-22T05:21:24.695Z,13.34
2022-10-22T05:24:28.829Z,13.31
2022-10-22T05:27:31.724Z,13.36
2022-10-22T05:30:34.486Z,13.45
2022-10-22T05:33:37.365Z,13.60
2022-10-22T05:36:40.249Z,13.71
2022-10-22T05:39:42.984Z,13.77
2022-10-22T05:42:45.700Z,13.93
2022-10-22T05:45:48.523Z,14.11
2022-10-22T05:48:55.395Z,14.25
2022-10-22T05:51:58.075Z,14.37
2022-10-22T05:55:00.850Z,14.50
2022-10-22T05:58:04.876Z,14.50
2022-10-22T06:01:15.701Z,14.60
2022-10-22T06:04:18.768Z,14.62
2022-10-22T06:07:21.465Z,14.73
2022-10-22T06:10:24.355Z,14.68
2022-10-22T06:13:27.080Z,14.70
2022-10-22T06:16:31.135Z,14.88
2022-10-22T06:19:33.990Z,15.01
2022-10-22T06:22:36.854Z,15.05
2022-10-22T06:25:39.623Z,15.15
2022-10-22T06:28:42.444Z,15.23
2022-10-22T06:31:45.347Z,15.58
2022-10-22T06:34:48.496Z,15.70
2022-10-22T06:37:51.284Z,15.90
2022-10-22T06:40:54.069Z,16.20
2022-10-22T06:43:58.074Z,16.77
2022-10-22T06:47:01.288Z,17.16
2022-10-22T06:50:04.278Z,17.53
2022-10-22T06:53:07.082Z,17.69
2022-10-22T06:56:12.476Z,17.54
2022-10-22T06:59:15.307Z,17.42
2022-10-22T07:02:18.147Z,17.36
2022-10-22T07:05:21.610Z,17.41
2022-10-22T07:08:24.617Z,17.19
2022-10-22T07:11:30.000Z,18.07
2022-10-22T07:14:32.922Z,18.48
2022-10-22T07:17:35.712Z,20.44
2022-10-22T07:20:38.478Z,20.49
2022-10-22T07:23:41.303Z,21.55
2022-10-22T07:26:44.247Z,21.84
2022-10-22T07:29:47.018Z,22.26
2022-10-22T07:32:50.271Z,22.95
2022-10-22T07:35:58.881Z,23.04
2022-10-22T07:39:01.912Z,23.39
2022-10-22T07:42:04.970Z,23.24
2022-10-22T07:45:08.453Z,24.96
2022-10-22T07:48:11.700Z,25.52
2022-10-22T07:51:14.799Z,24.10
2022-10-22T07:54:19.370Z,24.26
2022-10-22T07:57:22.302Z,25.12
2022-10-22T08:00:25.547Z,24.26
2022-10-22T08:03:29.467Z,24.82
2022-10-22T08:06:32.428Z,24.15
2022-10-22T08:09:35.275Z,23.56
2022-10-22T08:12:38.658Z,23.09
2022-10-22T08:18:45.816Z,22.01
2022-10-22T08:21:48.968Z,22.28
2022-10-22T08:24:51.694Z,22.28
2022-10-22T08:27:54.558Z,22.51
2022-10-22T08:30:57.510Z,21.57
2022-10-22T08:34:00.550Z,21.44
2022-10-22T08:37:03.468Z,22.10
2022-10-22T08:40:25.709Z,22.91
2022-10-22T08:43:59.128Z,22.92
2022-10-22T08:47:22.343Z,25.38
2022-10-22T08:50:41.989Z,25.85
2022-10-22T08:53:59.138Z,26.96
2022-10-22T09:00:46.209Z,27.20
2022-10-22T09:04:06.820Z,30.82
2022-10-22T09:07:10.547Z,32.39
2022-10-22T09:10:13.680Z,31.37
2022-10-22T09:13:20.334Z,32.95
2022-10-22T09:16:27.267Z,31.39
2022-10-22T09:19:49.211Z,28.59
2022-10-22T09:23:06.039Z,26.86
2022-10-22T09:26:17.066Z,29.84
2022-10-22T09:29:24.725Z,31.18
2022-10-22T09:32:28.582Z,32.46
2022-10-22T09:35:34.253Z,33.00
2022-10-22T09:38:45.477Z,31.31
2022-10-22T09:41:48.528Z,31.72
2022-10-22T09:45:00.256Z,31.34
2022-10-22T09:48:11.970Z,31.58
2022-10-22T09:51:21.123Z,30.79
2022-10-22T09:54:27.775Z,29.97
2022-10-22T09:57:30.586Z,31.84
2022-10-22T10:00:33.635Z,32.97
2022-10-22T10:03:36.358Z,33.72
2022-10-22T10:06:41.647Z,33.07
2022-10-22T10:09:44.457Z,33.07
2022-10-22T10:13:05.611Z,34.67
2022-10-22T10:16:20.479Z,34.37
2022-10-22T10:19:23.216Z,33.24
2022-10-22T10:22:38.104Z,30.32
2022-10-22T10:25:58.421Z,30.46
2022-10-22T10:29:19.360Z,29.89
2022-10-22T10:32:23.743Z,29.32
2022-10-22T10:35:37.164Z,27.99
2022-10-22T10:39:34.861Z,28.09
2022-10-22T10:42:44.577Z,28.26
2022-10-22T10:46:11.836Z,29.40
2022-10-22T10:49:26.039Z,29.26
2022-10-22T10:52:41.776Z,27.49
2022-10-22T10:56:01.833Z,26.94
2022-10-22T10:59:10.305Z,26.87
2022-10-22T11:02:28.042Z,26.41
2022-10-22T11:05:42.675Z,26.88
2022-10-22T11:09:09.425Z,26.12
2022-10-22T11:12:27.318Z,25.73
2022-10-22T11:15:39.519Z,25.31
2022-10-22T11:18:53.162Z,25.05
2022-10-22T11:22:10.721Z,24.78
2022-10-22T11:25:13.408Z,24.56
2022-10-22T11:28:42.459Z,24.56
2022-10-22T11:31:46.020Z,24.31
2022-10-22T11:34:59.840Z,24.10
2022-10-22T11:38:06.623Z,23.81
2022-10-22T11:41:16.183Z,24.02
2022-10-22T11:44:23.715Z,23.83
2022-10-22T11:47:30.098Z,23.43
2022-10-22T11:50:45.258Z,23.36
2022-10-22T11:53:58.863Z,23.02
2022-10-22T11:57:16.815Z,22.83
2022-10-22T12:00:41.259Z,22.56
2022-10-22T12:04:13.006Z,22.37
2022-10-22T12:07:35.723Z,22.46
2022-10-22T12:11:12.431Z,22.35
2022-10-22T12:14:29.977Z,22.25
2022-10-22T12:17:32.798Z,22.12
2022-10-22T12:20:35.913Z,22.17
2022-10-22T12:23:39.040Z,22.08
2022-10-22T12:26:41.951Z,22.10
2022-10-22T12:29:44.797Z,21.88
2022-10-22T12:32:47.575Z,21.83
2022-10-22T12:35:53.425Z,21.79
2022-10-22T12:39:00.673Z,21.77
2022-10-22T12:42:06.430Z,21.76
2022-10-22T12:45:09.810Z,21.76
2022-10-22T12:48:34.540Z,21.76
2022-10-22T12:51:37.421Z,21.44
2022-10-22T12:54:40.790Z,21.51
2022-10-22T12:57:43.556Z,21.54
2022-10-22T13:00:47.894Z,21.60
2022-10-22T13:04:03.760Z,21.46
2022-10-22T13:07:12.570Z,21.51
2022-10-22T13:10:26.302Z,21.64
2022-10-22T13:13:45.776Z,21.79
2022-10-22T13:17:09.367Z,21.78
2022-10-22T13:20:23.784Z,21.73
2022-10-22T13:23:28.356Z,21.68
2022-10-22T13:26:34.985Z,21.58
2022-10-22T13:29:41.772Z,21.55
2022-10-22T13:32:50.810Z,21.50
2022-10-22T13:35:55.344Z,21.26
2022-10-22T13:38:58.229Z,21.12
2022-10-22T13:42:01.012Z,21.04
2022-10-22T13:45:07.298Z,20.93
2022-10-22T13:48:16.270Z,20.91
2022-10-22T13:51:24.839Z,20.87
2022-10-22T13:54:27.592Z,20.92
2022-10-22T13:57:30.371Z,20.94
2022-10-22T14:00:33.398Z,20.77
2022-10-22T14:03:38.165Z,20.64
2022-10-22T14:06:40.903Z,20.61
2022-10-22T14:09:43.845Z,20.49
2022-10-22T14:12:52.276Z,20.37
2022-10-22T14:15:56.349Z,20.42
2022-10-22T14:19:00.937Z,20.37
2022-10-22T14:22:03.680Z,20.35
2022-10-22T14:25:06.745Z,20.40
2022-10-22T14:28:11.099Z,20.31
2022-10-22T14:31:13.914Z,20.30
2022-10-22T14:34:17.235Z,20.22
2022-10-22T14:37:20.925Z,20.19
2022-10-22T14:40:23.858Z,20.12
2022-10-22T14:43:31.331Z,20.19
2022-10-22T14:46:34.357Z,20.11
2022-10-22T14:49:37.171Z,20.03
2022-10-22T14:52:41.421Z,20.07
2022-10-22T15:00:05.297Z,20.02
2022-10-22T15:03:08.160Z,19.99
2022-10-22T15:06:11.066Z,19.84
2022-10-22T15:09:15.147Z,19.77
2022-10-22T15:12:18.098Z,19.71
2022-10-22T15:15:22.804Z,19.75
2022-10-22T15:18:27.242Z,19.76
2022-10-22T15:21:30.118Z,19.73
2022-10-22T15:24:33.446Z,19.62
2022-10-22T15:27:36.231Z,19.58
2022-10-22T15:30:39.120Z,19.38
2022-10-22T15:33:43.455Z,19.18
2022-10-22T15:36:46.506Z,18.95
2022-10-22T15:39:49.564Z,18.53
2022-10-22T15:42:52.517Z,18.12
2022-10-22T15:46:08.622Z,17.96
2022-10-22T15:49:12.729Z,17.68
2022-10-22T15:52:16.438Z,17.58
2022-10-22T15:55:19.331Z,17.43
2022-10-22T15:58:22.129Z,17.36
2022-10-22T16:01:26.841Z,17.21
2022-10-22T16:04:29.668Z,17.15
2022-10-22T16:07:32.664Z,17.14
2022-10-22T16:10:35.875Z,17.06
2022-10-22T16:13:38.967Z,16.99
2022-10-22T16:16:47.453Z,16.82
2022-10-22T16:19:50.163Z,16.89
2022-10-22T16:22:53.017Z,16.95
2022-10-22T16:25:55.803Z,16.99
2022-10-22T16:28:59.219Z,17.01
2022-10-22T16:32:02.111Z,16.91
2022-10-22T16:35:05.221Z,16.82
2022-10-22T16:38:09.881Z,16.66
2022-10-22T16:41:20.812Z,16.59
2022-10-22T16:44:23.851Z,16.53
2022-10-22T16:47:26.618Z,16.45
2022-10-22T16:50:29.381Z,16.50
2022-10-22T16:53:32.340Z,16.48
2022-10-22T16:56:36.605Z,16.46
2022-10-22T16:59:39.614Z,16.43
2022-10-22T17:02:42.762Z,16.37
2022-10-22T17:05:45.910Z,16.45
2022-10-22T17:08:48.887Z,16.40
2022-10-22T17:11:52.135Z,16.39
2022-10-22T17:14:55.091Z,16.38
2022-10-22T17:18:00.715Z,16.41
2022-10-22T17:21:05.414Z,16.37
2022-10-22T17:24:08.515Z,16.29
2022-10-22T17:27:11.243Z,16.24
2022-10-22T17:30:23.294Z,16.19
2022-10-22T17:33:29.617Z,15.99
2022-10-22T17:36:35.720Z,15.90
2022-10-22T17:39:39.092Z,15.49
2022-10-22T17:42:42.032Z,15.24
2022-10-22T17:45:45.320Z,15.05
2022-10-22T17:48:56.752Z,14.87
2022-10-22T17:55:04.502Z,14.63
2022-10-22T18:03:39.543Z,14.59
2022-10-22T18:06:42.519Z,14.51
2022-10-22T18:09:45.906Z,14.50
2022-10-22T18:12:49.291Z,14.44
2022-10-22T18:16:10.070Z,14.41
2022-10-22T18:19:48.298Z,14.44
2022-10-22T18:22:51.382Z,14.50
2022-10-22T18:25:57.031Z,14.42
2022-10-22T18:29:35.101Z,14.45
2022-10-22T18:32:42.959Z,14.41
2022-10-22T18:35:46.930Z,14.46
2022-10-22T18:38:58.784Z,14.38
2022-10-22T18:42:06.416Z,14.31
2022-10-22T18:45:10.867Z,14.28
2022-10-22T18:48:17.369Z,14.29
2022-10-22T18:51:21.163Z,14.31
2022-10-22T18:54:24.744Z,14.45
2022-10-22T18:57:28.006Z,14.42
2022-10-22T19:00:31.463Z,14.45
2022-10-22T19:03:34.730Z,14.47
2022-10-22T19:06:38.469Z,14.46
2022-10-22T19:09:43.448Z,14.44
2022-10-22T19:12:46.258Z,14.36
2022-10-22T19:15:49.668Z,14.44
2022-10-22T19:19:15.294Z,14.28
2022-10-22T19:22:18.267Z,14.24
2022-10-22T19:25:21.166Z,14.31
2022-10-22T19:28:24.052Z,14.26
2022-10-22T19:31:30.107Z,14.23
2022-10-22T19:34:32.983Z,14.18
2022-10-22T19:37:37.711Z,14.18
2022-10-22T19:40:43.571Z,14.17
2022-10-22T19:43:49.696Z,14.21
2022-10-22T19:46:54.149Z,14.25
2022-10-22T19:49:56.988Z,14.28
2022-10-22T19:53:01.589Z,14.43
2022-10-22T19:56:10.088Z,14.20
2022-10-22T19:59:15.411Z,14.11
2022-10-22T20:02:18.966Z,14.22
2022-10-22T20:08:26.056Z,14.09
2022-10-22T20:11:29.982Z,14.09
2022-10-22T20:14:33.616Z,14.22
2022-10-22T20:17:36.887Z,13.98
2022-10-22T20:20:39.797Z,14.01
2022-10-22T20:23:43.324Z,13.90
2022-10-22T20:26:47.117Z,13.84
2022-10-22T20:29:49.971Z,13.81
2022-10-22T20:32:52.978Z,13.67
2022-10-22T20:36:05.364Z,13.71
2022-10-22T20:39:12.860Z,13.75
2022-10-22T20:42:16.735Z,13.83
2022-10-22T20:45:19.650Z,13.77
2022-10-22T20:48:26.730Z,13.79
2022-10-22T20:51:29.654Z,13.65
2022-10-22T20:54:33.068Z,13.43
2022-10-22T20:57:36.428Z,13.35
2022-10-22T21:00:39.928Z,13.33
2022-10-22T21:03:42.990Z,13.04
2022-10-22T21:06:46.144Z,13.07
2022-10-22T21:09:50.945Z,12.93
2022-10-22T21:12:53.650Z,12.84
2022-10-22T21:15:56.500Z,12.70
2022-10-22T21:18:59.408Z,12.61
2022-10-22T21:22:02.165Z,12.52
2022-10-22T21:25:05.297Z,12.41
2022-10-22T21:28:08.224Z,12.28
2022-10-22T21:31:18.826Z,12.35
2022-10-22T21:34:21.659Z,12.30
2022-10-22T21:37:24.570Z,12.17
2022-10-22T21:40:28.243Z,12.07
2022-10-22T21:43:30.894Z,12.09
2022-10-22T21:46:34.640Z,12.01
2022-10-22T21:49:37.443Z,12.10
2022-10-22T21:52:40.283Z,12.03
2022-10-22T21:55:43.053Z,12.03
2022-10-22T21:58:45.945Z,12.05
2022-10-22T22:01:48.803Z,11.99
2022-10-22T22:04:54.912Z,12.07
2022-10-22T22:07:57.767Z,12.20
2022-10-22T22:11:14.136Z,12.33
2022-10-22T22:14:16.906Z,12.45
2022-10-22T22:17:19.618Z,12.53
2022-10-22T22:20:22.276Z,12.60
2022-10-22T22:23:25.818Z,12.67
2022-10-22T22:26:30.010Z,12.73
2022-10-22T22:29:33.393Z,12.79
2022-10-22T22:32:36.220Z,12.82
2022-10-22T22:38:41.982Z,12.85
2022-10-22T22:41:46.082Z,12.90
2022-10-22T22:44:48.875Z,12.91
2022-10-22T22:47:51.735Z,12.87
2022-10-22T22:50:54.867Z,12.86
2022-10-22T22:53:58.838Z,12.94
2022-10-22T22:57:01.549Z,12.99
2022-10-22T23:00:05.906Z,13.00
2022-10-22T23:03:11.927Z,12.99
2022-10-22T23:06:15.525Z,13.07
2022-10-22T23:12:23.577Z,13.08
2022-10-22T23:15:26.432Z,13.08
2022-10-22T23:18:29.415Z,13.10
2022-10-22T23:21:34.930Z,13.04
2022-10-22T23:24:38.231Z,13.07
2022-10-22T23:27:41.283Z,13.16
2022-10-22T23:30:45.319Z,13.20
2022-10-22T23:33:49.138Z,13.13
2022-10-22T23:36:52.756Z,13.13
2022-10-22T23:39:55.673Z,13.07
2022-10-22T23:42:58.539Z,13.06
2022-10-22T23:46:01.475Z,12.97
2022-10-22T23:49:05.868Z,12.99
2022-10-22T23:52:08.584Z,12.99
2022-10-22T23:55:11.298Z,13.12
2022-10-22T23:58:14.062Z,13.09
